Terminal Aerodrome Forecast
Issued by NWS Portland, OR

Home | Current Version | Previous Version | Text Only | Print | Product List | Glossary On
Versions: 1 2 3 4 5 6 7 8 9 10 11 12 13 14 15 16 17 18 19 20 21 22 23 24 25 26 27 28 29 30 31
785
FTUS46 KPQR 120535
TAFSLE
TAF
KSLE 120535Z 1206/1306 00000KT 5SM BR OVC005
     FM121400 17005KT 5SM -RA BR OVC009
     FM122200 20006KT 4SM BR OVC019
     FM130000 20006KT P6SM BKN100=

USA.gov is the U.S. government's official web portal to all federal, state and local government web resources and services.